createdAt,value
2019-02-05T00:01:53.431Z,9.67
2019-02-05T00:04:28.754Z,9.77
2019-02-05T00:07:00.287Z,8.93
2019-02-05T00:09:32.858Z,8.20
2019-02-05T00:12:05.645Z,8.87
2019-02-05T00:14:40.013Z,8.70
2019-02-05T00:17:13.498Z,9.20
2019-02-05T00:19:45.443Z,9.53
2019-02-05T00:22:17.594Z,11.30
2019-02-05T00:24:49.737Z,11.57
2019-02-05T00:27:21.167Z,10.03
2019-02-05T00:29:56.252Z,10.03
2019-02-05T00:32:27.245Z,9.10
2019-02-05T00:34:59.054Z,11.87
2019-02-05T00:37:29.538Z,10.37
2019-02-05T00:40:00.628Z,8.13
2019-02-05T00:42:31.460Z,12.40
2019-02-05T00:45:02.778Z,9.80
2019-02-05T00:47:39.007Z,8.63
2019-02-05T00:50:11.398Z,8.57
2019-02-05T00:52:44.517Z,7.90
2019-02-05T00:55:19.068Z,8.47
2019-02-05T00:57:51.098Z,8.37
2019-02-05T01:00:27.642Z,9.00
2019-02-05T01:02:59.286Z,11.67
2019-02-05T01:05:32.634Z,10.57
2019-02-05T01:08:07.383Z,10.27
2019-02-05T01:10:39.401Z,8.00
2019-02-05T01:13:10.650Z,7.80
2019-02-05T01:15:44.142Z,8.97
2019-02-05T01:18:15.084Z,11.40
2019-02-05T01:20:46.159Z,10.57
2019-02-05T01:23:17.087Z,9.13
2019-02-05T01:25:47.354Z,7.53
2019-02-05T01:28:19.543Z,10.17
2019-02-05T01:30:52.242Z,9.80
2019-02-05T01:33:23.300Z,10.03
2019-02-05T01:36:02.703Z,9.20
2019-02-05T01:38:35.491Z,12.63
2019-02-05T01:41:06.163Z,11.70
2019-02-05T01:43:37.628Z,11.40
2019-02-05T01:46:12.242Z,11.40
2019-02-05T01:48:43.277Z,11.10
2019-02-05T01:51:13.517Z,12.93
2019-02-05T01:53:45.547Z,11.00
2019-02-05T01:56:16.907Z,11.47
2019-02-05T01:58:48.474Z,15.97
2019-02-05T02:01:25.316Z,11.50
2019-02-05T02:03:59.543Z,10.23
2019-02-05T02:06:32.754Z,11.57
2019-02-05T02:09:06.024Z,14.60
2019-02-05T02:11:39.347Z,16.10
2019-02-05T02:14:15.382Z,13.97
2019-02-05T02:16:54.597Z,13.07
2019-02-05T02:19:51.956Z,18.23
2019-02-05T02:22:23.535Z,15.63
2019-02-05T02:24:55.456Z,15.17
2019-02-05T02:27:26.952Z,13.90
2019-02-05T02:29:57.802Z,17.00
2019-02-05T02:32:29.269Z,12.83
2019-02-05T02:35:01.807Z,17.00
2019-02-05T02:37:33.001Z,19.47
2019-02-05T02:40:06.567Z,18.13
2019-02-05T02:42:40.462Z,14.13
2019-02-05T02:45:13.110Z,18.83
2019-02-05T02:47:48.945Z,13.10
2019-02-05T02:50:20.948Z,16.23
2019-02-05T02:52:55.596Z,15.90
2019-02-05T02:55:30.845Z,16.00
2019-02-05T02:58:02.945Z,14.50
2019-02-05T03:00:36.708Z,17.27
2019-02-05T03:03:11.348Z,18.00
2019-02-05T03:05:44.330Z,14.97
2019-02-05T03:08:18.879Z,16.93
2019-02-05T03:10:50.968Z,17.80
2019-02-05T03:13:25.104Z,20.00
2019-02-05T03:15:58.437Z,17.60
2019-02-05T03:18:35.986Z,20.00
2019-02-05T03:21:08.231Z,19.17
2019-02-05T03:23:38.958Z,22.50
2019-02-05T03:26:11.806Z,19.97
2019-02-05T03:28:42.189Z,18.40
2019-02-05T03:31:13.054Z,18.30
2019-02-05T03:33:46.030Z,20.67
2019-02-05T03:36:18.640Z,20.27
2019-02-05T03:38:51.984Z,15.97
2019-02-05T03:41:25.223Z,16.63
2019-02-05T03:43:58.380Z,17.13
2019-02-05T03:46:28.596Z,15.80
2019-02-05T03:49:06.817Z,20.17
2019-02-05T03:52:01.389Z,14.27
2019-02-05T03:54:58.352Z,15.90
2019-02-05T03:58:06.306Z,23.77
2019-02-05T04:01:05.252Z,15.90
2019-02-05T04:04:12.932Z,19.07
2019-02-05T04:07:12.061Z,13.80
2019-02-05T04:10:08.505Z,14.10
2019-02-05T04:13:12.669Z,13.87
2019-02-05T04:16:08.641Z,11.33
2019-02-05T04:19:02.582Z,15.10
2019-02-05T04:22:01.389Z,14.47
2019-02-05T04:25:01.120Z,15.13
2019-02-05T04:28:15.667Z,14.00
2019-02-05T04:31:32.587Z,14.70
2019-02-05T04:34:45.121Z,15.10
2019-02-05T04:37:43.390Z,11.63
2019-02-05T04:40:47.618Z,24.80
2019-02-05T04:44:08.211Z,15.53
2019-02-05T04:46:57.089Z,19.00
2019-02-05T04:49:59.265Z,12.97
2019-02-05T04:53:19.783Z,16.07
2019-02-05T04:56:18.376Z,17.67
2019-02-05T04:59:53.670Z,12.67
2019-02-05T05:02:57.018Z,14.47
2019-02-05T05:06:23.699Z,16.67
2019-02-05T05:09:19.299Z,17.30
2019-02-05T05:11:57.754Z,11.40
2019-02-05T05:14:35.183Z,15.07
2019-02-05T05:17:28.935Z,10.13
2019-02-05T05:20:03.220Z,14.43
2019-02-05T05:22:41.969Z,13.80
2019-02-05T05:25:22.811Z,10.93
2019-02-05T05:28:09.631Z,20.37
2019-02-05T05:30:39.565Z,9.57
2019-02-05T05:33:16.352Z,10.23
2019-02-05T05:35:51.689Z,11.37
2019-02-05T05:38:23.726Z,14.13
2019-02-05T05:40:57.602Z,10.67
2019-02-05T05:43:30.596Z,13.30
2019-02-05T05:46:04.669Z,12.43
2019-02-05T05:48:37.598Z,11.30
2019-02-05T05:51:14.918Z,13.67
2019-02-05T05:53:59.858Z,10.87
2019-02-05T05:56:38.456Z,14.10
2019-02-05T05:59:13.851Z,15.47
2019-02-05T06:01:51.364Z,15.10
2019-02-05T06:04:27.866Z,13.47
2019-02-05T06:07:06.888Z,14.83
2019-02-05T06:09:39.871Z,16.33
2019-02-05T06:12:24.479Z,12.97
2019-02-05T06:15:02.278Z,17.63
2019-02-05T06:17:44.850Z,14.53
2019-02-05T06:20:23.481Z,18.00
2019-02-05T06:23:26.753Z,14.03
2019-02-05T06:26:27.794Z,19.23
2019-02-05T06:28:58.746Z,13.53
2019-02-05T06:31:34.139Z,12.87
2019-02-05T06:34:12.455Z,18.17
2019-02-05T06:36:49.892Z,17.10
2019-02-05T06:39:30.560Z,18.83
2019-02-05T06:42:05.748Z,13.90
2019-02-05T06:44:36.678Z,12.90
2019-02-05T06:47:09.790Z,12.50
2019-02-05T06:49:40.773Z,15.73
2019-02-05T06:52:13.390Z,12.77
2019-02-05T06:54:45.824Z,13.87
2019-02-05T06:57:21.737Z,15.37
2019-02-05T06:59:57.969Z,14.63
2019-02-05T07:02:57.202Z,18.60
2019-02-05T07:05:47.979Z,12.53
2019-02-05T07:08:42.517Z,17.33
2019-02-05T07:11:16.846Z,15.37
2019-02-05T07:13:48.507Z,15.83
2019-02-05T07:16:21.774Z,14.67
2019-02-05T07:18:54.037Z,14.97
2019-02-05T07:21:26.273Z,14.13
2019-02-05T07:24:00.612Z,20.37
2019-02-05T07:26:33.819Z,17.50
2019-02-05T07:29:06.627Z,14.83
2019-02-05T07:31:44.637Z,17.70
2019-02-05T07:34:35.908Z,17.83
2019-02-05T07:37:31.551Z,16.47
2019-02-05T07:40:38.695Z,15.07
2019-02-05T07:43:11.550Z,22.90
2019-02-05T07:45:44.070Z,21.50
2019-02-05T07:48:22.924Z,18.43
2019-02-05T07:51:01.670Z,21.83
2019-02-05T07:53:38.959Z,21.10
2019-02-05T07:56:33.622Z,18.10
2019-02-05T07:59:11.755Z,19.93
2019-02-05T08:01:48.810Z,19.57
2019-02-05T08:04:53.294Z,17.20
2019-02-05T08:07:32.962Z,17.30
2019-02-05T08:10:19.423Z,16.80
2019-02-05T08:13:00.054Z,16.27
2019-02-05T08:15:35.927Z,18.70
2019-02-05T08:18:07.721Z,18.10
2019-02-05T08:20:42.315Z,18.73
2019-02-05T08:23:20.763Z,20.07
2019-02-05T08:25:52.856Z,22.70
2019-02-05T08:28:25.753Z,18.80
2019-02-05T08:30:58.583Z,26.07
2019-02-05T08:33:34.186Z,28.43
2019-02-05T08:39:11.615Z,19.83
2019-02-05T08:41:49.595Z,17.63
2019-02-05T08:44:40.092Z,21.03
2019-02-05T08:47:18.861Z,22.40
2019-02-05T08:49:53.313Z,22.23
2019-02-05T08:52:26.582Z,20.10
2019-02-05T08:55:01.674Z,21.27
2019-02-05T08:57:35.846Z,19.30
2019-02-05T09:00:32.850Z,19.17
2019-02-05T09:03:14.176Z,20.47
2019-02-05T09:05:50.788Z,19.73
2019-02-05T09:08:23.123Z,18.83
2019-02-05T09:10:59.719Z,22.47
2019-02-05T09:13:31.462Z,24.40
2019-02-05T09:16:09.308Z,25.47
2019-02-05T09:18:51.751Z,17.37
2019-02-05T09:21:25.548Z,28.37
2019-02-05T09:23:58.209Z,22.97
2019-02-05T09:26:31.699Z,20.10
2019-02-05T09:29:17.103Z,25.07
2019-02-05T09:32:07.938Z,20.33
2019-02-05T09:34:47.667Z,23.07
2019-02-05T09:37:22.394Z,18.97
2019-02-05T09:39:53.624Z,21.03
2019-02-05T09:42:25.934Z,20.13
2019-02-05T09:44:56.493Z,19.73
2019-02-05T09:47:29.276Z,23.20
2019-02-05T09:50:05.098Z,18.80
2019-02-05T09:52:36.153Z,17.77
2019-02-05T09:55:11.090Z,25.27
2019-02-05T09:57:43.252Z,18.33
2019-02-05T10:00:22.803Z,20.57
2019-02-05T10:02:56.740Z,22.23
2019-02-05T10:05:29.277Z,21.50
2019-02-05T10:08:00.939Z,16.70
2019-02-05T10:10:34.962Z,22.40
2019-02-05T10:13:06.382Z,19.40
2019-02-05T10:15:40.328Z,22.53
2019-02-05T10:18:16.235Z,22.93
2019-02-05T10:20:50.780Z,20.00
2019-02-05T10:23:25.011Z,20.67
2019-02-05T10:25:59.722Z,18.70
2019-02-05T10:28:32.359Z,19.03
2019-02-05T10:31:07.161Z,23.77
2019-02-05T10:33:42.677Z,18.97
2019-02-05T10:36:15.994Z,23.57
2019-02-05T10:38:55.168Z,33.20
2019-02-05T10:41:28.696Z,33.73
2019-02-05T10:44:00.247Z,24.00
2019-02-05T10:46:32.949Z,21.37
2019-02-05T10:49:04.096Z,24.40
2019-02-05T10:52:45.870Z,23.67
2019-02-05T10:55:45.918Z,20.70
2019-02-05T11:01:33.674Z,20.60
2019-02-05T11:04:04.357Z,19.40
2019-02-05T11:06:43.986Z,20.00
2019-02-05T11:09:29.976Z,21.03
2019-02-05T11:12:02.483Z,20.77
2019-02-05T11:14:34.443Z,21.90
2019-02-05T11:17:11.575Z,22.37
2019-02-05T11:19:43.844Z,19.57
2019-02-05T11:22:14.869Z,17.87
2019-02-05T11:24:46.299Z,20.07
2019-02-05T11:27:19.480Z,15.77
2019-02-05T11:29:54.978Z,18.30
2019-02-05T11:32:28.192Z,18.53
2019-02-05T11:35:05.600Z,22.80
2019-02-05T11:37:42.416Z,19.03
2019-02-05T11:40:20.331Z,18.30
2019-02-05T11:42:52.573Z,18.37
2019-02-05T11:45:27.098Z,15.93
2019-02-05T11:48:03.818Z,20.53
2019-02-05T11:50:37.368Z,20.60
2019-02-05T11:53:10.184Z,21.67
2019-02-05T11:55:42.321Z,24.13
2019-02-05T11:58:14.567Z,18.67
2019-02-05T12:00:55.707Z,21.23
2019-02-05T12:03:29.279Z,24.90
2019-02-05T12:06:00.453Z,25.07
2019-02-05T12:08:33.475Z,17.40
2019-02-05T12:11:06.122Z,17.90
2019-02-05T12:13:38.432Z,19.43
2019-02-05T12:16:12.533Z,19.77
2019-02-05T12:18:50.929Z,17.50
2019-02-05T12:21:27.227Z,20.63
2019-02-05T12:24:03.757Z,17.63
2019-02-05T12:26:38.806Z,21.67
2019-02-05T12:29:10.425Z,18.40
2019-02-05T12:31:45.978Z,20.70
2019-02-05T12:34:17.860Z,20.03
2019-02-05T12:36:48.171Z,20.93
2019-02-05T12:39:26.466Z,24.07
2019-02-05T12:41:59.845Z,19.60
2019-02-05T12:44:34.960Z,20.60
2019-02-05T12:47:08.562Z,22.97
2019-02-05T12:49:46.856Z,18.03
2019-02-05T12:52:23.839Z,19.00
2019-02-05T12:55:12.805Z,20.10
2019-02-05T12:57:35.416Z,20.73
2019-02-05T13:00:13.866Z,20.77
2019-02-05T13:02:46.409Z,19.00
2019-02-05T13:05:18.154Z,19.00
2019-02-05T13:07:49.896Z,22.47
2019-02-05T13:10:29.216Z,20.03
2019-02-05T13:13:01.084Z,24.60
2019-02-05T13:15:35.546Z,20.23
2019-02-05T13:18:09.069Z,21.37
2019-02-05T13:20:45.864Z,20.73
2019-02-05T13:23:19.587Z,25.30
2019-02-05T13:25:57.318Z,19.07
2019-02-05T13:28:32.146Z,21.37
2019-02-05T13:31:09.404Z,17.83
2019-02-05T13:33:49.499Z,21.43
2019-02-05T13:36:22.781Z,16.80
2019-02-05T13:38:55.130Z,23.40
2019-02-05T13:41:31.119Z,21.40
2019-02-05T13:44:04.417Z,19.93
2019-02-05T13:46:35.044Z,19.70
2019-02-05T13:49:06.184Z,20.97
2019-02-05T13:51:40.831Z,23.87
2019-02-05T13:54:12.816Z,20.70
2019-02-05T13:56:45.973Z,20.53
2019-02-05T13:59:19.216Z,18.13
2019-02-05T14:01:49.854Z,17.07
2019-02-05T14:04:26.017Z,17.33
2019-02-05T14:06:56.892Z,22.10
2019-02-05T14:09:27.083Z,18.70
2019-02-05T14:12:01.537Z,19.40
2019-02-05T14:14:38.337Z,25.83
2019-02-05T14:17:11.901Z,17.87
2019-02-05T14:19:45.884Z,20.73
2019-02-05T14:22:23.730Z,18.70
2019-02-05T14:24:58.404Z,22.47
2019-02-05T14:27:29.510Z,20.53
2019-02-05T14:30:06.754Z,18.63
2019-02-05T14:32:38.257Z,21.10
2019-02-05T14:35:12.262Z,21.03
2019-02-05T14:37:44.837Z,17.57
2019-02-05T14:40:21.365Z,20.43
2019-02-05T14:42:51.843Z,19.13
2019-02-05T14:45:23.422Z,18.33
2019-02-05T14:47:56.693Z,21.63
2019-02-05T14:50:30.074Z,19.37
2019-02-05T14:53:04.710Z,20.57
2019-02-05T14:55:56.748Z,17.80
2019-02-05T14:58:29.018Z,25.37
2019-02-05T15:01:01.121Z,22.00
2019-02-05T15:03:34.520Z,18.83
2019-02-05T15:06:07.903Z,18.90
2019-02-05T15:08:52.502Z,17.53
2019-02-05T15:11:29.311Z,15.93
2019-02-05T15:14:01.382Z,17.03
2019-02-05T15:16:33.516Z,17.10
2019-02-05T15:19:08.040Z,17.73
2019-02-05T15:21:46.997Z,17.23
2019-02-05T15:24:37.939Z,17.83
2019-02-05T15:27:13.889Z,17.53
2019-02-05T15:29:51.476Z,17.23
2019-02-05T15:32:52.073Z,15.43
2019-02-05T15:35:31.632Z,18.40
2019-02-05T15:38:06.170Z,16.13
2019-02-05T15:40:46.951Z,15.90
2019-02-05T15:43:20.313Z,15.93
2019-02-05T15:46:12.937Z,18.67
2019-02-05T15:48:46.597Z,16.63
2019-02-05T15:51:19.823Z,17.90
2019-02-05T15:53:54.649Z,17.17
2019-02-05T15:56:33.030Z,17.43
2019-02-05T15:59:11.695Z,17.00
2019-02-05T16:01:47.304Z,15.67
2019-02-05T16:04:21.405Z,19.03
2019-02-05T16:06:56.290Z,19.93
2019-02-05T16:09:27.394Z,22.43
2019-02-05T16:11:57.547Z,19.30
2019-02-05T16:14:28.874Z,19.30
2019-02-05T16:17:00.905Z,20.03
2019-02-05T16:19:34.762Z,16.13
2019-02-05T16:22:10.781Z,18.67
2019-02-05T16:24:43.494Z,17.13
2019-02-05T16:27:18.219Z,16.60
2019-02-05T16:29:52.419Z,16.03
2019-02-05T16:32:28.580Z,19.50
2019-02-05T16:35:02.042Z,16.43
2019-02-05T16:37:36.132Z,16.60
2019-02-05T16:40:13.177Z,16.93
2019-02-05T16:42:55.817Z,17.33
2019-02-05T16:45:31.291Z,18.27
2019-02-05T16:48:10.900Z,17.70
2019-02-05T16:50:47.586Z,15.43
2019-02-05T16:53:18.928Z,18.23
2019-02-05T16:55:51.534Z,17.20
2019-02-05T16:58:27.705Z,19.33
2019-02-05T17:00:58.644Z,21.87
2019-02-05T17:03:30.847Z,20.70
2019-02-05T17:07:07.269Z,19.43
2019-02-05T17:10:57.968Z,16.83
2019-02-05T17:14:20.004Z,17.27
2019-02-05T17:16:52.684Z,16.90
2019-02-05T17:19:32.492Z,18.00
2019-02-05T17:22:20.442Z,17.93
2019-02-05T17:29:33.720Z,24.47
2019-02-05T17:33:14.137Z,18.77
2019-02-05T17:36:35.268Z,17.97
2019-02-05T17:43:24.742Z,19.37
2019-02-05T17:46:43.113Z,21.00
2019-02-05T17:50:24.272Z,21.37
2019-02-05T17:53:37.915Z,22.67
2019-02-05T17:56:12.907Z,21.30
2019-02-05T17:58:50.988Z,23.53
2019-02-05T18:01:26.386Z,25.00
2019-02-05T18:03:59.281Z,20.33
2019-02-05T18:10:36.361Z,20.57
2019-02-05T18:13:43.888Z,24.77
2019-02-05T18:19:59.814Z,21.23
2019-02-05T18:22:54.791Z,22.60
2019-02-05T18:26:14.306Z,23.93
2019-02-05T18:33:26.632Z,22.33
2019-02-05T18:36:49.733Z,25.07
2019-02-05T18:39:23.323Z,22.77
2019-02-05T18:41:53.594Z,25.73
2019-02-05T18:44:24.537Z,28.33
2019-02-05T18:46:55.857Z,27.27
2019-02-05T18:49:38.832Z,25.80
2019-02-05T18:52:30.265Z,24.97
2019-02-05T18:58:13.292Z,23.67
2019-02-05T19:00:45.592Z,27.13
2019-02-05T19:03:17.640Z,28.17
2019-02-05T19:05:49.333Z,30.17
2019-02-05T19:08:22.548Z,30.50
2019-02-05T19:10:53.584Z,24.80
2019-02-05T19:13:24.904Z,25.33
2019-02-05T19:15:56.157Z,24.77
2019-02-05T19:18:26.739Z,26.13
2019-02-05T19:20:59.853Z,25.63
2019-02-05T19:23:34.455Z,28.10
2019-02-05T19:26:28.574Z,28.30
2019-02-05T19:28:59.309Z,25.90
2019-02-05T19:31:35.689Z,29.10
2019-02-05T19:34:07.700Z,26.00
2019-02-05T19:36:39.360Z,28.77
2019-02-05T19:39:11.119Z,25.87
2019-02-05T19:42:16.008Z,30.70
2019-02-05T19:48:29.280Z,29.07
2019-02-05T19:51:12.795Z,28.53
2019-02-05T19:54:03.985Z,27.20
2019-02-05T20:00:49.275Z,27.77
2019-02-05T20:03:20.354Z,25.50
2019-02-05T20:05:51.796Z,31.20
2019-02-05T20:08:26.797Z,31.73
2019-02-05T20:10:56.992Z,56.33
2019-02-05T20:13:39.963Z,65.43
2019-02-05T20:16:07.711Z,95.90
2019-02-05T20:19:00.844Z,47.10
2019-02-05T20:21:32.878Z,41.77
2019-02-05T20:24:07.369Z,34.50
2019-02-05T20:26:41.374Z,24.60
2019-02-05T20:29:12.284Z,24.83
2019-02-05T20:31:45.003Z,29.77
2019-02-05T20:34:15.501Z,28.00
2019-02-05T20:36:50.531Z,24.33
2019-02-05T20:39:24.030Z,30.03
2019-02-05T20:41:57.300Z,26.57
2019-02-05T20:44:32.522Z,26.20
2019-02-05T20:47:03.540Z,24.87
2019-02-05T20:49:33.734Z,23.70
2019-02-05T20:52:04.627Z,25.20
2019-02-05T20:54:37.514Z,26.07
2019-02-05T20:57:11.943Z,27.67
2019-02-05T20:59:44.111Z,24.67
2019-02-05T21:02:29.179Z,28.07
2019-02-05T21:05:04.067Z,26.20
2019-02-05T21:07:37.847Z,24.37
2019-02-05T21:10:12.585Z,25.97
2019-02-05T21:12:49.583Z,24.87
2019-02-05T21:15:25.852Z,23.57
2019-02-05T21:17:56.310Z,23.40
2019-02-05T21:20:31.367Z,30.73
2019-02-05T21:23:01.529Z,28.70
2019-02-05T21:25:40.777Z,25.40
2019-02-05T21:28:22.694Z,24.00
2019-02-05T21:31:13.224Z,27.40
2019-02-05T21:33:51.913Z,25.67
2019-02-05T21:36:26.462Z,25.27
2019-02-05T21:39:01.350Z,25.03
2019-02-05T21:41:36.675Z,26.60
2019-02-05T21:44:10.489Z,24.77
2019-02-05T21:46:45.973Z,26.87
2019-02-05T21:49:17.190Z,23.97
2019-02-05T21:51:57.914Z,26.63
2019-02-05T21:54:33.064Z,26.70
2019-02-05T21:57:05.856Z,28.13
2019-02-05T21:59:38.695Z,28.40
2019-02-05T22:02:10.495Z,30.97
2019-02-05T22:04:44.244Z,28.73
2019-02-05T22:07:15.962Z,29.83
2019-02-05T22:09:48.963Z,30.20
2019-02-05T22:12:21.975Z,31.20
2019-02-05T22:14:54.234Z,28.93
2019-02-05T22:17:28.384Z,26.23
2019-02-05T22:20:01.008Z,27.10
2019-02-05T22:22:32.357Z,31.00
2019-02-05T22:25:02.994Z,31.33
2019-02-05T22:27:36.969Z,26.53
2019-02-05T22:30:16.980Z,28.70
2019-02-05T22:32:50.687Z,27.23
2019-02-05T22:35:23.037Z,26.77
2019-02-05T22:37:57.234Z,29.13
2019-02-05T22:40:28.608Z,27.23
2019-02-05T22:43:05.786Z,26.00
2019-02-05T22:45:42.925Z,29.07
2019-02-05T22:48:15.141Z,25.73
2019-02-05T22:50:46.513Z,24.93
2019-02-05T22:53:19.498Z,26.70
2019-02-05T22:55:53.349Z,23.53
2019-02-05T22:58:33.583Z,24.77
2019-02-05T23:01:52.187Z,27.07
2019-02-05T23:04:59.058Z,24.03
2019-02-05T23:07:34.084Z,24.80
2019-02-05T23:10:40.451Z,23.40
2019-02-05T23:13:16.218Z,22.13
2019-02-05T23:15:50.375Z,22.03
2019-02-05T23:18:26.148Z,20.30
2019-02-05T23:20:58.438Z,22.30
2019-02-05T23:23:31.502Z,22.03
2019-02-05T23:26:04.297Z,19.03
2019-02-05T23:28:38.555Z,20.30
2019-02-05T23:31:10.779Z,17.80
2019-02-05T23:33:45.141Z,19.43
2019-02-05T23:36:16.916Z,20.60
2019-02-05T23:38:48.903Z,23.03
2019-02-05T23:41:21.566Z,18.60
2019-02-05T23:44:00.013Z,18.70
2019-02-05T23:46:32.147Z,18.87
2019-02-05T23:49:08.575Z,18.13
2019-02-05T23:51:41.841Z,18.10
2019-02-05T23:54:12.777Z,20.30
2019-02-05T23:56:49.529Z,20.67
2019-02-05T23:59:36.138Z,19.30
